createdAt,value
2019-06-08T00:01:55.398Z,16.56
2019-06-08T00:04:24.354Z,16.56
2019-06-08T00:06:53.245Z,16.52
2019-06-08T00:09:22.608Z,16.51
2019-06-08T00:11:53.788Z,16.47
2019-06-08T00:14:23.415Z,16.45
2019-06-08T00:16:51.551Z,16.45
2019-06-08T00:19:21.636Z,16.45
2019-06-08T00:21:51.864Z,16.41
2019-06-08T00:24:21.852Z,16.41
2019-06-08T00:26:49.586Z,16.42
2019-06-08T00:29:18.859Z,16.38
2019-06-08T00:31:47.710Z,16.35
2019-06-08T00:34:17.065Z,16.34
2019-06-08T00:36:46.691Z,16.35
2019-06-08T00:39:16.732Z,16.36
2019-06-08T00:41:45.289Z,16.34
2019-06-08T00:44:15.177Z,16.35
2019-06-08T00:46:44.430Z,16.35
2019-06-08T00:49:13.384Z,16.34
2019-06-08T00:51:42.240Z,16.31
2019-06-08T00:54:13.025Z,16.32
2019-06-08T00:56:42.875Z,16.32
2019-06-08T00:59:11.723Z,16.32
2019-06-08T01:01:40.669Z,16.31
2019-06-08T01:04:11.366Z,16.29
2019-06-08T01:06:40.387Z,16.30
2019-06-08T01:09:09.247Z,16.29
2019-06-08T01:11:38.828Z,16.29
2019-06-08T01:14:07.668Z,16.27
2019-06-08T01:16:36.489Z,16.27
2019-06-08T01:19:05.378Z,16.28
2019-06-08T01:21:34.319Z,16.27
2019-06-08T01:24:03.205Z,16.26
2019-06-08T01:26:32.111Z,16.26
2019-06-08T01:29:01.267Z,16.25
2019-06-08T01:31:34.458Z,16.25
2019-06-08T01:34:03.663Z,16.25
2019-06-08T01:36:32.512Z,16.24
2019-06-08T01:39:01.587Z,16.23
2019-06-08T01:41:31.750Z,16.23
2019-06-08T01:43:59.722Z,16.21
2019-06-08T01:46:28.570Z,16.22
2019-06-08T01:48:57.881Z,16.21
2019-06-08T01:51:28.582Z,16.20
2019-06-08T01:53:56.739Z,16.16
2019-06-08T01:56:27.103Z,16.16
2019-06-08T01:58:56.315Z,16.15
2019-06-08T02:01:25.504Z,16.13
2019-06-08T02:03:53.999Z,16.12
2019-06-08T02:06:24.166Z,16.11
2019-06-08T02:08:52.410Z,16.08
2019-06-08T02:11:21.359Z,16.07
2019-06-08T02:13:50.993Z,16.06
2019-06-08T02:16:20.098Z,16.05
2019-06-08T02:18:51.062Z,16.04
2019-06-08T02:21:18.606Z,16.01
2019-06-08T02:23:48.677Z,16.01
2019-06-08T02:26:17.575Z,15.98
2019-06-08T02:28:46.515Z,15.95
2019-06-08T02:31:16.018Z,15.92
2019-06-08T02:33:48.816Z,15.91
2019-06-08T02:36:17.672Z,15.89
2019-06-08T02:38:46.709Z,15.86
2019-06-08T02:41:15.555Z,15.81
2019-06-08T02:43:44.553Z,15.79
2019-06-08T02:46:13.461Z,15.79
2019-06-08T02:49:02.447Z,15.76
2019-06-08T02:51:11.293Z,15.75
2019-06-08T02:53:41.547Z,15.77
2019-06-08T02:56:10.068Z,15.76
2019-06-08T02:58:40.747Z,15.75
2019-06-08T03:01:08.437Z,15.75
2019-06-08T03:03:38.351Z,15.76
2019-06-08T03:06:07.290Z,15.73
2019-06-08T03:08:39.116Z,15.73
2019-06-08T03:11:06.386Z,15.71
2019-06-08T03:13:36.116Z,15.71
2019-06-08T03:16:05.325Z,15.70
2019-06-08T03:18:35.676Z,15.71
2019-06-08T03:21:03.167Z,15.72
2019-06-08T03:23:34.242Z,15.70
2019-06-08T03:26:02.628Z,15.68
2019-06-08T03:28:32.645Z,15.65
2019-06-08T03:31:00.349Z,15.64
2019-06-08T03:33:30.028Z,15.62
2019-06-08T03:35:59.035Z,15.58
2019-06-08T03:38:27.841Z,15.55
2019-06-08T03:40:56.709Z,15.54
2019-06-08T03:43:26.851Z,15.50
2019-06-08T03:45:55.809Z,15.46
2019-06-08T03:48:24.978Z,15.43
2019-06-08T03:50:54.142Z,15.39
2019-06-08T03:53:23.089Z,15.38
2019-06-08T03:55:51.945Z,15.38
2019-06-08T03:58:22.982Z,15.39
2019-06-08T04:00:55.173Z,15.41
2019-06-08T04:03:24.140Z,15.40
2019-06-08T04:05:52.993Z,15.38
2019-06-08T04:08:21.925Z,15.37
2019-06-08T04:10:52.391Z,15.38
2019-06-08T04:13:21.311Z,15.37
2019-06-08T04:15:50.413Z,15.37
2019-06-08T04:18:19.107Z,15.36
2019-06-08T04:20:49.384Z,15.38
2019-06-08T04:23:17.582Z,15.37
2019-06-08T04:25:47.755Z,15.40
2019-06-08T04:28:15.584Z,15.40
2019-06-08T04:30:45.293Z,15.41
2019-06-08T04:33:13.402Z,15.38
2019-06-08T04:35:45.192Z,15.38
2019-06-08T04:38:12.371Z,15.40
2019-06-08T04:40:41.936Z,15.39
2019-06-08T04:43:10.253Z,15.36
2019-06-08T04:45:40.881Z,15.34
2019-06-08T04:48:09.680Z,15.33
2019-06-08T04:50:38.658Z,15.34
2019-06-08T04:53:06.204Z,15.32
2019-06-08T04:55:35.089Z,15.31
2019-06-08T04:58:03.994Z,15.29
2019-06-08T05:00:33.205Z,15.30
2019-06-08T05:03:02.592Z,15.31
2019-06-08T05:05:31.480Z,15.32
2019-06-08T05:08:00.350Z,15.29
2019-06-08T05:10:29.321Z,15.26
2019-06-08T05:12:58.251Z,15.24
2019-06-08T05:15:27.107Z,15.28
2019-06-08T05:17:56.517Z,15.29
2019-06-08T05:20:38.358Z,15.32
2019-06-08T05:22:54.537Z,15.32
2019-06-08T05:25:23.407Z,15.31
2019-06-08T05:27:52.345Z,15.28
2019-06-08T05:30:21.201Z,15.26
2019-06-08T05:32:51.582Z,15.26
2019-06-08T05:35:21.197Z,15.28
2019-06-08T05:37:50.122Z,15.31
2019-06-08T05:40:19.010Z,15.32
2019-06-08T05:42:49.991Z,15.33
2019-06-08T05:45:18.255Z,15.32
2019-06-08T05:47:47.961Z,15.28
2019-06-08T05:50:16.804Z,15.26
2019-06-08T05:52:46.375Z,15.26
2019-06-08T05:55:15.252Z,15.25
2019-06-08T05:57:44.275Z,15.25
2019-06-08T06:00:13.933Z,15.23
2019-06-08T06:02:42.920Z,15.25
2019-06-08T06:05:12.124Z,15.24
2019-06-08T06:07:42.581Z,15.23
2019-06-08T06:10:10.165Z,15.21
2019-06-08T06:12:39.132Z,15.21
2019-06-08T06:15:08.000Z,15.16
2019-06-08T06:17:38.794Z,15.13
2019-06-08T06:20:07.692Z,15.09
2019-06-08T06:22:36.571Z,15.09
2019-06-08T06:25:05.732Z,15.09
2019-06-08T06:27:34.692Z,15.08
2019-06-08T06:30:03.672Z,15.08
2019-06-08T06:32:32.479Z,15.11
2019-06-08T06:35:03.074Z,15.15
2019-06-08T06:37:32.138Z,15.15
2019-06-08T06:40:01.700Z,15.15
2019-06-08T06:42:30.587Z,15.08
2019-06-08T06:44:59.589Z,15.09
2019-06-08T06:47:28.465Z,15.08
2019-06-08T06:49:59.314Z,15.08
2019-06-08T06:52:28.480Z,15.06
2019-06-08T06:54:57.519Z,15.01
2019-06-08T06:57:26.782Z,14.96
2019-06-08T06:59:56.637Z,14.94
2019-06-08T07:02:25.571Z,14.91
2019-06-08T07:04:54.473Z,14.90
2019-06-08T07:07:26.753Z,14.86
2019-06-08T07:09:56.395Z,14.85
2019-06-08T07:12:25.430Z,14.94
2019-06-08T07:14:55.478Z,14.99
2019-06-08T07:17:23.343Z,14.99
2019-06-08T07:19:53.215Z,15.01
2019-06-08T07:22:22.317Z,15.04
2019-06-08T07:24:52.584Z,15.00
2019-06-08T07:27:20.407Z,15.04
2019-06-08T07:29:50.523Z,15.05
2019-06-08T07:32:18.942Z,15.08
2019-06-08T07:34:48.785Z,15.08
2019-06-08T07:37:17.598Z,15.06
2019-06-08T07:39:47.168Z,15.09
2019-06-08T07:42:18.391Z,15.14
2019-06-08T07:44:50.824Z,15.17
2019-06-08T07:47:19.318Z,15.12
2019-06-08T07:49:49.372Z,15.14
2019-06-08T07:52:19.174Z,15.15
2019-06-08T07:54:49.390Z,15.21
2019-06-08T07:57:17.520Z,15.21
2019-06-08T07:59:47.599Z,15.21
2019-06-08T08:02:15.564Z,15.23
2019-06-08T08:04:45.153Z,15.27
2019-06-08T08:07:14.735Z,15.35
2019-06-08T08:09:44.550Z,15.38
2019-06-08T08:12:15.323Z,15.40
2019-06-08T08:14:44.250Z,15.45
2019-06-08T08:17:13.256Z,15.48
2019-06-08T08:19:42.159Z,15.45
2019-06-08T08:22:22.111Z,15.41
2019-06-08T08:24:41.319Z,15.38
2019-06-08T08:27:10.164Z,15.38
2019-06-08T08:29:39.182Z,15.41
2019-06-08T08:32:09.957Z,15.45
2019-06-08T08:34:38.303Z,15.48
2019-06-08T08:37:09.516Z,15.53
2019-06-08T08:39:37.667Z,15.49
2019-06-08T08:42:05.613Z,15.49
2019-06-08T08:44:38.030Z,15.45
2019-06-08T08:47:07.443Z,15.48
2019-06-08T08:49:34.267Z,15.55
2019-06-08T08:52:03.929Z,15.67
2019-06-08T08:54:34.735Z,15.80
2019-06-08T08:57:05.201Z,15.89
2019-06-08T08:59:32.995Z,16.01
2019-06-08T09:02:03.070Z,16.15
2019-06-08T09:04:31.898Z,16.24
2019-06-08T09:07:05.213Z,16.35
2019-06-08T09:09:29.754Z,16.55
2019-06-08T09:12:02.282Z,16.80
2019-06-08T09:14:28.120Z,16.92
2019-06-08T09:16:59.815Z,16.83
2019-06-08T09:19:27.913Z,16.83
2019-06-08T09:21:56.015Z,16.89
2019-06-08T09:24:23.501Z,16.86
2019-06-08T09:26:53.894Z,16.90
2019-06-08T09:29:21.341Z,16.96
2019-06-08T09:31:50.204Z,17.01
2019-06-08T09:34:19.370Z,17.08
2019-06-08T09:36:48.975Z,17.17
2019-06-08T09:39:18.588Z,17.19
2019-06-08T09:41:47.947Z,17.10
2019-06-08T09:44:18.249Z,17.03
2019-06-08T09:46:48.055Z,16.98
2019-06-08T09:49:15.503Z,16.92
2019-06-08T09:51:44.452Z,16.86
2019-06-08T09:54:13.439Z,16.80
2019-06-08T09:56:42.371Z,16.74
2019-06-08T09:59:14.789Z,16.74
2019-06-08T10:01:40.058Z,16.72
2019-06-08T10:04:09.541Z,16.70
2019-06-08T10:06:40.420Z,16.72
2019-06-08T10:09:08.995Z,16.76
2019-06-08T10:11:38.041Z,16.78
2019-06-08T10:14:11.683Z,16.80
2019-06-08T10:16:38.019Z,16.83
2019-06-08T10:19:06.996Z,16.84
2019-06-08T10:21:33.852Z,16.86
2019-06-08T10:24:06.321Z,16.94
2019-06-08T10:26:33.967Z,16.99
2019-06-08T10:29:05.169Z,16.98
2019-06-08T10:31:39.108Z,16.99
2019-06-08T10:34:03.419Z,16.97
2019-06-08T10:36:30.129Z,16.99
2019-06-08T10:39:02.801Z,17.02
2019-06-08T10:41:28.565Z,17.02
2019-06-08T10:43:57.489Z,17.12
2019-06-08T10:46:26.451Z,17.18
2019-06-08T10:48:57.403Z,17.26
2019-06-08T10:51:25.927Z,17.38
2019-06-08T10:53:54.875Z,17.50
2019-06-08T10:56:23.856Z,17.56
2019-06-08T10:58:55.244Z,17.67
2019-06-08T11:01:24.148Z,17.78
2019-06-08T11:03:53.094Z,17.77
2019-06-08T11:06:22.046Z,17.74
2019-06-08T11:08:50.969Z,17.72
2019-06-08T11:11:20.550Z,17.69
2019-06-08T11:13:50.517Z,17.65
2019-06-08T11:16:18.399Z,17.62
2019-06-08T11:18:50.495Z,17.60
2019-06-08T11:21:18.705Z,17.65
2019-06-08T11:23:59.870Z,17.81
2019-06-08T11:26:22.629Z,17.97
2019-06-08T11:28:44.112Z,18.12
2019-06-08T11:31:15.918Z,18.25
2019-06-08T11:33:43.072Z,18.33
2019-06-08T11:36:14.905Z,18.55
2019-06-08T11:38:43.310Z,18.95
2019-06-08T11:41:13.689Z,19.18
2019-06-08T11:43:41.657Z,19.16
2019-06-08T11:46:10.720Z,19.04
2019-06-08T11:48:41.511Z,18.86
2019-06-08T11:51:10.697Z,18.71
2019-06-08T11:53:38.551Z,18.48
2019-06-08T11:56:09.466Z,18.37
2019-06-08T11:58:38.574Z,18.32
2019-06-08T12:01:11.670Z,18.25
2019-06-08T12:03:38.716Z,18.24
2019-06-08T12:06:08.574Z,18.64
2019-06-08T12:08:34.628Z,18.86
2019-06-08T12:11:09.735Z,18.86
2019-06-08T12:13:36.090Z,18.70
2019-06-08T12:16:14.255Z,18.38
2019-06-08T12:18:35.093Z,18.09
2019-06-08T12:21:05.655Z,17.89
2019-06-08T12:23:34.693Z,17.79
2019-06-08T12:26:04.032Z,17.86
2019-06-08T12:28:32.473Z,18.01
2019-06-08T12:31:01.483Z,18.19
2019-06-08T12:33:33.854Z,18.31
2019-06-08T12:36:02.775Z,18.41
2019-06-08T12:38:34.479Z,18.59
2019-06-08T12:41:00.669Z,18.95
2019-06-08T12:43:30.367Z,19.66
2019-06-08T12:45:59.567Z,20.11
2019-06-08T12:48:28.787Z,20.03
2019-06-08T12:50:57.530Z,20.08
2019-06-08T12:53:28.316Z,20.30
2019-06-08T12:55:57.718Z,20.77
2019-06-08T12:58:24.316Z,21.22
2019-06-08T13:00:54.134Z,21.40
2019-06-08T13:03:23.580Z,21.45
2019-06-08T13:05:53.344Z,21.59
2019-06-08T13:08:22.164Z,21.69
2019-06-08T13:10:51.039Z,21.78
2019-06-08T13:13:24.176Z,21.90
2019-06-08T13:15:48.821Z,21.91
2019-06-08T13:18:21.238Z,21.87
2019-06-08T13:20:51.765Z,21.85
2019-06-08T13:23:20.029Z,21.87
2019-06-08T13:25:48.157Z,21.92
2019-06-08T13:28:19.389Z,21.80
2019-06-08T13:30:47.706Z,21.91
2019-06-08T13:33:16.763Z,22.17
2019-06-08T13:35:48.032Z,22.34
2019-06-08T13:38:17.305Z,22.43
2019-06-08T13:40:48.429Z,22.45
2019-06-08T13:43:19.575Z,22.45
2019-06-08T13:45:48.542Z,22.49
2019-06-08T13:48:18.661Z,22.66
2019-06-08T13:50:46.622Z,22.81
2019-06-08T13:53:14.811Z,22.73
2019-06-08T13:55:53.322Z,22.83
2019-06-08T13:58:14.927Z,23.07
2019-06-08T14:00:43.327Z,23.20
2019-06-08T14:03:13.633Z,23.08
2019-06-08T14:05:41.926Z,22.90
2019-06-08T14:08:11.137Z,22.81
2019-06-08T14:10:39.998Z,22.80
2019-06-08T14:13:08.920Z,22.90
2019-06-08T14:15:38.127Z,23.01
2019-06-08T14:18:08.892Z,22.93
2019-06-08T14:20:38.255Z,22.76
2019-06-08T14:23:08.948Z,22.55
2019-06-08T14:25:47.927Z,22.46
2019-06-08T14:28:06.326Z,22.65
2019-06-08T14:30:37.553Z,22.89
2019-06-08T14:33:04.291Z,23.24
2019-06-08T14:35:33.312Z,23.31
2019-06-08T14:38:02.320Z,23.16
2019-06-08T14:40:33.080Z,22.92
2019-06-08T14:43:00.867Z,22.73
2019-06-08T14:45:31.018Z,22.53
2019-06-08T14:47:58.916Z,22.38
2019-06-08T14:50:30.711Z,22.63
2019-06-08T14:52:58.815Z,22.88
2019-06-08T14:55:29.703Z,22.92
2019-06-08T14:57:57.861Z,22.77
2019-06-08T15:00:25.695Z,22.49
2019-06-08T15:02:53.563Z,22.28
2019-06-08T15:05:25.266Z,22.20
2019-06-08T15:07:53.693Z,22.20
2019-06-08T15:10:24.003Z,22.34
2019-06-08T15:12:57.826Z,22.35
2019-06-08T15:15:25.896Z,22.19
2019-06-08T15:17:54.246Z,21.97
2019-06-08T15:20:24.027Z,21.90
2019-06-08T15:22:52.067Z,21.91
2019-06-08T15:25:20.911Z,21.91
2019-06-08T15:27:50.181Z,21.91
2019-06-08T15:30:19.150Z,21.92
2019-06-08T15:32:48.098Z,21.95
2019-06-08T15:35:18.140Z,21.87
2019-06-08T15:37:47.692Z,21.78
2019-06-08T15:40:14.615Z,21.68
2019-06-08T15:42:43.564Z,21.71
2019-06-08T15:45:12.524Z,21.65
2019-06-08T15:47:41.596Z,21.58
2019-06-08T15:50:10.701Z,21.57
2019-06-08T15:52:42.276Z,21.62
2019-06-08T15:55:12.280Z,21.49
2019-06-08T15:57:41.488Z,21.28
2019-06-08T16:00:10.356Z,20.97
2019-06-08T16:02:39.158Z,20.75
2019-06-08T16:05:07.931Z,20.66
2019-06-08T16:07:36.819Z,20.61
2019-06-08T16:10:06.208Z,20.62
2019-06-08T16:12:35.180Z,20.65
2019-06-08T16:15:05.366Z,20.67
2019-06-08T16:17:35.480Z,20.57
2019-06-08T16:20:04.611Z,20.55
2019-06-08T16:22:33.843Z,20.46
2019-06-08T16:25:03.189Z,20.31
2019-06-08T16:27:33.925Z,20.19
2019-06-08T16:30:09.012Z,20.11
2019-06-08T16:32:35.347Z,19.93
2019-06-08T16:35:03.183Z,19.64
2019-06-08T16:37:32.038Z,19.45
2019-06-08T16:40:01.498Z,19.49
2019-06-08T16:42:30.311Z,19.58
2019-06-08T16:44:59.821Z,19.54
2019-06-08T16:47:29.484Z,19.43
2019-06-08T16:49:58.385Z,19.34
2019-06-08T16:52:28.450Z,19.27
2019-06-08T16:54:56.238Z,19.14
2019-06-08T16:57:25.233Z,19.07
2019-06-08T16:59:54.221Z,19.03
2019-06-08T17:02:23.067Z,18.98
2019-06-08T17:04:52.112Z,18.92
2019-06-08T17:07:22.737Z,18.88
2019-06-08T17:09:51.780Z,18.88
2019-06-08T17:12:20.629Z,18.87
2019-06-08T17:14:49.682Z,18.82
2019-06-08T17:17:18.706Z,18.76
2019-06-08T17:19:49.045Z,18.72
2019-06-08T17:22:18.756Z,18.68
2019-06-08T17:24:47.692Z,18.61
2019-06-08T17:27:26.388Z,18.55
2019-06-08T17:29:45.957Z,18.50
2019-06-08T17:32:14.939Z,18.45
2019-06-08T17:34:44.320Z,18.45
2019-06-08T17:37:13.216Z,18.43
2019-06-08T17:39:42.591Z,18.38
2019-06-08T17:42:11.089Z,18.33
2019-06-08T17:44:40.910Z,18.30
2019-06-08T17:47:11.113Z,18.31
2019-06-08T17:49:41.308Z,18.30
2019-06-08T17:52:10.258Z,18.27
2019-06-08T17:54:39.230Z,18.24
2019-06-08T17:57:09.849Z,18.17
2019-06-08T17:59:39.469Z,18.08
2019-06-08T18:02:12.089Z,18.02
2019-06-08T18:04:39.563Z,17.99
2019-06-08T18:07:07.458Z,17.98
2019-06-08T18:09:38.899Z,17.95
2019-06-08T18:12:07.513Z,17.91
2019-06-08T18:14:39.027Z,17.88
2019-06-08T18:17:05.095Z,17.87
2019-06-08T18:19:34.822Z,17.88
2019-06-08T18:22:06.500Z,17.81
2019-06-08T18:24:34.506Z,17.72
2019-06-08T18:27:02.947Z,17.64
2019-06-08T18:29:31.954Z,17.59
2019-06-08T18:32:00.776Z,17.57
2019-06-08T18:34:29.734Z,17.53
2019-06-08T18:36:58.635Z,17.47
2019-06-08T18:39:28.185Z,17.43
2019-06-08T18:41:58.980Z,17.38
2019-06-08T18:44:28.728Z,17.35
2019-06-08T18:46:58.837Z,17.28
2019-06-08T18:49:28.960Z,17.25
2019-06-08T18:51:58.192Z,17.18
2019-06-08T18:54:27.838Z,17.14
2019-06-08T18:56:56.868Z,17.10
2019-06-08T18:59:28.585Z,17.03
2019-06-08T19:01:57.564Z,16.97
2019-06-08T19:04:30.486Z,16.92
2019-06-08T19:06:56.150Z,16.87
2019-06-08T19:09:25.082Z,16.83
2019-06-08T19:11:54.006Z,16.79
2019-06-08T19:14:22.900Z,16.75
2019-06-08T19:16:54.812Z,16.73
2019-06-08T19:19:20.701Z,16.70
2019-06-08T19:21:51.291Z,16.65
2019-06-08T19:24:20.965Z,16.60
2019-06-08T19:26:50.044Z,16.53
2019-06-08T19:29:19.929Z,16.49
2019-06-08T19:31:51.196Z,16.44
2019-06-08T19:34:18.816Z,16.38
2019-06-08T19:36:52.151Z,16.34
2019-06-08T19:39:17.894Z,16.28
2019-06-08T19:41:50.412Z,16.24
2019-06-08T19:44:18.156Z,16.17
2019-06-08T19:46:47.586Z,16.10
2019-06-08T19:49:17.290Z,16.05
2019-06-08T19:51:48.548Z,16.01
2019-06-08T19:54:18.247Z,15.95
2019-06-08T19:56:52.509Z,15.89
2019-06-08T19:59:14.819Z,15.84
2019-06-08T20:01:43.785Z,15.79
2019-06-08T20:04:12.640Z,15.75
2019-06-08T20:06:42.812Z,15.69
2019-06-08T20:09:11.228Z,15.65
2019-06-08T20:11:44.258Z,15.60
2019-06-08T20:14:11.058Z,15.54
2019-06-08T20:16:42.649Z,15.49
2019-06-08T20:19:11.249Z,15.45
2019-06-08T20:21:40.965Z,15.41
2019-06-08T20:24:10.393Z,15.36
2019-06-08T20:26:39.683Z,15.31
2019-06-08T20:29:13.621Z,15.24
2019-06-08T20:31:39.086Z,15.20
2019-06-08T20:34:08.649Z,15.13
2019-06-08T20:36:37.678Z,15.06
2019-06-08T20:39:08.188Z,14.99
2019-06-08T20:41:37.722Z,14.94
2019-06-08T20:44:08.470Z,14.88
2019-06-08T20:46:37.630Z,14.82
2019-06-08T20:49:04.377Z,14.78
2019-06-08T20:51:33.354Z,14.74
2019-06-08T20:54:02.786Z,14.69
2019-06-08T20:56:31.648Z,14.65
2019-06-08T20:59:02.946Z,14.60
2019-06-08T21:01:31.947Z,14.55
2019-06-08T21:04:01.043Z,14.51
2019-06-08T21:06:30.058Z,14.46
2019-06-08T21:09:00.017Z,14.42
2019-06-08T21:11:28.993Z,14.38
2019-06-08T21:13:57.948Z,14.34
2019-06-08T21:16:27.655Z,14.31
2019-06-08T21:18:57.765Z,14.26
2019-06-08T21:21:24.803Z,14.21
2019-06-08T21:23:55.623Z,14.18
2019-06-08T21:26:22.804Z,14.13
2019-06-08T21:28:54.129Z,14.08
2019-06-08T21:31:20.883Z,14.04
2019-06-08T21:33:52.131Z,13.99
2019-06-08T21:36:18.684Z,13.94
2019-06-08T21:38:50.412Z,13.90
2019-06-08T21:41:17.209Z,13.85
2019-06-08T21:43:45.590Z,13.80
2019-06-08T21:46:14.424Z,13.77
2019-06-08T21:48:43.766Z,13.74
2019-06-08T21:51:14.846Z,13.71
2019-06-08T21:53:46.991Z,13.66
2019-06-08T21:56:14.071Z,13.63
2019-06-08T21:58:43.223Z,13.60
2019-06-08T22:01:13.099Z,13.56
2019-06-08T22:03:42.027Z,13.52
2019-06-08T22:06:10.877Z,13.50
2019-06-08T22:08:39.747Z,13.47
2019-06-08T22:11:09.218Z,13.44
2019-06-08T22:13:37.629Z,13.41
2019-06-08T22:16:08.054Z,13.38
2019-06-08T22:18:37.834Z,13.35
2019-06-08T22:21:04.550Z,13.33
2019-06-08T22:23:34.895Z,13.30
2019-06-08T22:26:03.814Z,13.27
2019-06-08T22:28:33.727Z,13.23
2019-06-08T22:31:03.840Z,13.22
2019-06-08T22:33:32.489Z,13.19
2019-06-08T22:36:01.528Z,13.17
2019-06-08T22:38:30.465Z,13.14
2019-06-08T22:41:00.690Z,13.11
2019-06-08T22:43:28.439Z,13.08
2019-06-08T22:45:59.932Z,13.06
2019-06-08T22:48:27.697Z,12.97
2019-06-08T22:50:59.543Z,13.00
2019-06-08T22:53:27.612Z,12.99
2019-06-08T22:55:55.328Z,12.97
2019-06-08T22:58:27.637Z,12.96
2019-06-08T23:00:57.023Z,12.93
2019-06-08T23:03:24.437Z,12.90
2019-06-08T23:05:54.812Z,12.87
2019-06-08T23:08:22.398Z,12.85
2019-06-08T23:10:51.377Z,12.81
2019-06-08T23:13:20.289Z,12.79
2019-06-08T23:15:49.239Z,12.76
2019-06-08T23:18:18.248Z,12.75
2019-06-08T23:20:48.127Z,12.71
2019-06-08T23:23:17.844Z,12.69
2019-06-08T23:25:47.904Z,12.66
2019-06-08T23:28:14.981Z,12.62
2019-06-08T23:30:43.931Z,12.60
2019-06-08T23:33:13.712Z,12.57
2019-06-08T23:36:08.267Z,12.54
2019-06-08T23:38:11.507Z,12.50
2019-06-08T23:40:40.602Z,12.48
2019-06-08T23:43:12.074Z,12.44
2019-06-08T23:45:41.027Z,12.42
2019-06-08T23:48:09.921Z,12.39
2019-06-08T23:50:38.856Z,12.36
2019-06-08T23:53:10.758Z,12.33
2019-06-08T23:55:37.346Z,12.31
2019-06-08T23:58:09.550Z,12.27
